Tikaboo Peak, Nevada Weather observations

Data are for 10 minute period ending at time listed.
 Day   Time   Solar   Ave.   Ave.  Ave.  Vector  Max.   Baro.   Total    
  of    of     Rad.   Air    Rel.  Wind   Wind   Wind  Press.  Precip.   
Year   Day            Temp.  Hum.  Speed  Dir.   Gust                    
2014   (PST)  Kw/m2    F      %     mph   deg.    mph    mb.     in.     
-------------------------------------------------------------------------
 297   18:50   0.00   55.9    35   15.2   203    21.1   766.3    0.00 
 297   19:00   0.00   55.9    35   13.8   200    20.5   766.3    0.00 
 297   19:10   0.00   55.7    36   12.7   194    22.5   766.3    0.00 
 297   19:20   0.00   55.6    37   13.8   197    19.9   766.3    0.00 
 297   19:30   0.00   55.4    38   14.6   196    23.2   766.4    0.00 
 297   19:40   0.00   55.5    38   13.6   196    21.1   766.4    0.00 
 297   19:50   0.00   55.5    37   14.4   202    21.3   766.4    0.00 
 297   20:00   0.00   55.7    36   13.3   203    18.2   766.4    0.00 
 297   20:10   0.00   55.3    37   11.8   203    17.7   766.5    0.00 
 297   20:20   0.00   55.1    38   14.0   204    19.4   766.5    0.00 
 297   20:30   0.00   54.6    40   13.6   208    17.0   766.6    0.00 
 297   20:40   0.00   54.3    41   13.5   208    17.7   766.6    0.00 
 297   20:50   0.00   54.5    41   15.1   207    19.5   766.7    0.00 
 297   21:00   0.00   54.3    42   14.9   208    19.2   766.6    0.00 
 297   21:10   0.00   54.3    43   15.9   206    22.2   766.6    0.00 
 297   21:20   0.00   54.0    44   16.0   207    21.3   766.6    0.00 
 297   21:30   0.00   53.9    44   16.2   205    22.1   766.7    0.00 
 297   21:40   0.00   53.9    44   18.1   204    22.4   766.6    0.00 
 297   21:50   0.00   53.7    44   15.9   207    19.4   766.6    0.00 
 297   22:00   0.00   53.8    44   15.0   202    19.1   766.6    0.00 
 297   22:10   0.00   53.8    44   13.4   201    17.6   766.6    0.00 
 297   22:20   0.00   54.2    42   13.8   198    17.9   766.5    0.00 
 297   22:30   0.00   54.7    41   14.3   202    20.5   766.6    0.00 
 297   22:40   0.00   54.4    42   15.0   195    21.8   766.5    0.00 
 297   22:50   0.00   54.9    38   15.3   197    21.9   766.4    0.00 
 297   23:00   0.00   55.2    37   14.6   200    23.8   766.2    0.00 
 297   23:10   0.00   55.2    36   15.9   202    22.9   766.2    0.00 
 297   23:20   0.00   55.0    36   14.3   202    21.3   766.3    0.00 
 297   23:30   0.00   54.8    37   13.9   201    20.8   766.3    0.00 
 297   23:40   0.00   55.0    35   16.6   204    24.5   766.3    0.00 
 297   23:50   0.00   54.8    34   15.3   204    21.1   766.3    0.00 
 298    0:00   0.00   54.6    34   14.3   201    20.8   766.3    0.00 
 298    0:10   0.00   54.6    32   14.0   204    22.9   766.2    0.00 
 298    0:20   0.00   54.6    33   15.4   211    21.3   766.1    0.00 
 298    0:30   0.00   54.2    34   13.6   214    18.5   766.1    0.00 
 298    0:40   0.00   53.8    35   13.1   208    18.8   766.2    0.00 
 298    0:50   0.00   53.6    36   12.9   206    16.5   766.0    0.00 
 298    1:00   0.00   53.4    38   14.3   208    18.3   765.8    0.00 
 298    1:10   0.00   53.1    39   13.2   209    16.7   766.0    0.00 
 298    1:20   0.00   52.9    41   15.0   208    19.3   765.8    0.00 
 298    1:30   0.00   52.6    42   14.0   212    18.7   765.8    0.00 
 298    1:40   0.00   52.2    44   15.4   208    20.3   765.7    0.00 
 298    1:50   0.00   51.9    45   15.5   204    20.4   765.5    0.00 
 298    2:00   0.00   51.8    45   16.0   206    21.4   765.4    0.00 
 298    2:10   0.00   51.4    46   15.5   210    20.3   765.5    0.00 
 298    2:20   0.00   51.2    46   15.1   208    20.1   765.2    0.00 
 298    2:30   0.00   51.0    46   15.9   206    21.0   765.2    0.00 
 298    2:40   0.00   51.0    46   17.3   207    21.7   765.0    0.00 
 298    2:50   0.00   50.9    46   15.9   211    20.1   765.0    0.00 
 298    3:00   0.00   50.8    46   16.4   207    22.5   764.9    0.00 
 298    3:10   0.00   50.9    46   18.2   206    25.2   764.8    0.00 
 298    3:20   0.00   51.1    46   20.2   208    25.1   764.7    0.00 
 298    3:30   0.00   51.0    47   22.5   210    31.0   764.7    0.00 
 298    3:40   0.00   51.3    48   24.4   211    33.2   764.6    0.00 
 298    3:50   0.00   51.3    49   25.0   210    30.8   764.6    0.00 
 298    4:00   0.00   51.2    49   22.1   212    32.4   764.6    0.00 
 298    4:10   0.00   51.2    50   21.8   212    29.7   764.7    0.00 
 298    4:20   0.00   51.2    50   22.7   214    29.4   764.6    0.00 
 298    4:30   0.00   51.2    50   21.9   215    28.9   764.6    0.00 
 298    4:40   0.00   51.1    50   23.3   214    34.6   764.6    0.00 
 298    4:50   0.00   50.8    50   21.0   208    30.0   764.6    0.00 
 298    5:00   0.00   50.6    51   23.1   210    30.2   764.5    0.00 
 298    5:10   0.00   50.5    51   22.1   207    31.0   764.5    0.00 
 298    5:20   0.00   50.3    52   24.1   206    31.5   764.3    0.00 
 298    5:30   0.00   50.3    52   24.9   206    34.3   764.4    0.00 
 298    5:40   0.00   50.3    52   24.7   208    34.6   764.3    0.00 
 298    5:50   0.00   50.2    52   25.2   209    32.2   764.3    0.00 
 298    6:00   0.01   50.1    52   22.7   210    31.7   764.3    0.00 
 298    6:10   0.04   50.1    51   21.7   208    28.1   764.5    0.00 
 298    6:20   0.06   50.3    50   22.3   210    29.5   764.4    0.00 
 298    6:30   0.11   50.4    50   20.9   210    27.1   764.5    0.00 
 298    6:40   0.14   51.1    49   19.5   210    26.7   764.6    0.00 
 298    6:50   0.18   51.9    48   19.6   210    25.9   764.7    0.00 
 298    7:00   0.21   52.2    48   19.1   208    24.2   764.8    0.00 
 298    7:10   0.25   52.6    47   18.7   207    23.7   765.0    0.00 
 298    7:20   0.29   52.8    47   19.0   210    24.7   765.1    0.00 
 298    7:30   0.32   53.2    46   16.9   209    23.4   765.3    0.00 
 298    7:40   0.35   53.6    46   17.7   207    23.1   765.3    0.00 
 298    7:50   0.39   53.5    46   19.1   208    26.4   765.4    0.00 
 298    8:00   0.42   53.9    44   19.1   209    27.7   765.3    0.00 
 298    8:10   0.45   53.9    44   19.8   208    28.1   765.3    0.00 
 298    8:20   0.48   54.1    43   19.0   207    28.0   765.3    0.00 
 298    8:30   0.51   54.3    43   19.6   208    27.2   765.4    0.00 
 298    8:40   0.53   54.8    42   17.5   210    27.7   765.4    0.00 
 298    8:50   0.56   55.0    42   16.7   210    24.6   765.4    0.00 
 298    9:00   0.58   55.4    41   18.2   208    25.4   765.4    0.00 
 298    9:10   0.60   55.5    42   20.5   212    28.6   765.4    0.00 
 298    9:20   0.62   54.5    44   16.2   210    28.1   765.4    0.00 
 298    9:30   0.64   55.2    43   15.4   218    26.3   765.5    0.00 
 298    9:40   0.66   55.9    42   17.5   212    26.6   765.5    0.00 
 298    9:50   0.68   55.0    44   17.6   216    28.5   765.5    0.00 
 298   10:00   0.69   54.6    45   19.5   214    27.2   765.3    0.00 
 298   10:10   0.71   54.5    45   18.3   215    28.6   765.4    0.00 
 298   10:20   0.72   55.1    44   15.5   217    23.3   765.4    0.00 
 298   10:30   0.76   56.2    41   14.6   219    26.3   765.4    0.00 
 298   10:40   0.73   57.1    39   14.4   218    22.5   765.4    0.00 
 298   10:50   0.75   57.2    39   14.3   217    22.0   765.3    0.00 
 298   11:00   0.73   57.9    37   12.7   216    19.8   765.3    0.00 
 298   11:10   0.66   58.2    36   13.0   219    21.9   765.3    0.00 
 298   11:20   0.68   57.8    36   12.7   224    23.5   765.2    0.00 
 298   11:30   0.77   58.5    35   12.2   217    18.9   765.1    0.00 
 298   11:40   0.74   59.4    33   12.6   216    20.1   765.0    0.00 
 298   11:50   0.72   59.5    33   13.1   218    24.6   764.8    0.00 
 298   12:00   0.71   58.9    33   13.6   218    23.0   764.7    0.00 
 298   12:10   0.70   58.5    33   14.0   213    21.2   764.6    0.00 
 298   12:20   0.68   58.9    33   13.6   220    21.5   764.6    0.00 
 298   12:30   0.67   58.7    34   16.1   216    28.6   764.5    0.00 
 298   12:40   0.66   58.5    33   14.8   222    25.7   764.4    0.00 
 298   12:50   0.54   58.7    33   13.4   220    24.7   764.4    0.00 
 298   13:00   0.64   58.6    34   15.1   220    23.3   764.3    0.00 
 298   13:10   0.42   59.0    34   15.0   220    25.3   764.2    0.00 
 298   13:20   0.37   57.1    37   13.8   221    24.6   764.2    0.00 
 298   13:30   0.57   58.4    35   14.6   216    22.9   764.1    0.00 
 298   13:40   0.47   58.9    34   12.7   231    23.3   764.0    0.00 
 298   13:50   0.29   58.5    35   16.7   224    28.7   763.9    0.00 
 298   14:00   0.33   57.7    37   16.4   230    27.3   763.7    0.00 
 298   14:10   0.46   58.5    34   20.1   226    31.2   763.6    0.00 
 298   14:20   0.41   58.9    33   16.8   231    31.4   763.6    0.00 
 298   14:30   0.38   59.1    33   18.8   225    29.7   763.7    0.00 
 298   14:40   0.34   59.1    34   13.8   223    26.2   763.7    0.00 
 298   14:50   0.31   59.1    35   18.1   223    27.2   763.5    0.00 
 298   15:00   0.28   58.9    36   18.6   228    38.9   763.5    0.00 
 298   15:10   0.24   58.8    36   18.7   224    28.4   763.5    0.00 
 298   15:20   0.23   59.1    35   20.9   219    33.8   763.4    0.00 
 298   15:30   0.19   59.6    34   16.4   232    26.6   763.5    0.00 
 298   15:40   0.16   59.7    34   16.6   228    25.6   763.4    0.00 
 298   15:50   0.11   59.4    34   15.1   228    23.5   763.4    0.00 
 298   16:00   0.10   59.1    34   14.7   234    23.8   763.2    0.00 
 298   16:10   0.08   58.1    37   15.6   236    26.7   763.1    0.00 
 298   16:20   0.06   57.3    38   16.1   234    27.8   763.1    0.00 
 298   16:30   0.04   56.6    39   16.2   232    27.5   763.0    0.00 
 298   16:40   0.03   55.7    41   16.8   234    28.7   763.0    0.00 
 298   16:50   0.01   54.8    43   13.9   242    27.6   763.1    0.00 
 298   17:00   0.00   54.3    44    9.9   255    17.7   763.1    0.00 
 298   17:10   0.00   53.7    44   10.8   251    20.0   763.1    0.00 
 298   17:20   0.00   52.9    46   11.4   242    22.4   762.9    0.00 
 298   17:30   0.00   52.5    46   12.8   243    22.6   762.9    0.00 
 298   17:40   0.00   52.0    47   16.3   231    30.7   762.8    0.00 
 298   17:50   0.00   51.8    48   18.5   227    27.8   762.8    0.00 
 298   18:00   0.00   51.6    49   18.4   226    25.2   762.6    0.00 
 298   18:10   0.00   51.3    49   15.8   224    22.4   762.7    0.00 
 298   18:20   0.00   51.0    49   14.2   222    21.1   762.6    0.00 
 298   18:30   0.00   50.9    49   12.7   234    21.0   762.9    0.00 
 298   18:40   0.00   50.8    48   18.6   218    25.7   762.7    0.00 

Return to Tikaboo Peak graphs page.


Western Regional Climate Center,wrcc@dri.edu